Time;durP1;ratioP1;P1;durP2;ratioP2;P2;SDS_P1;SDS_P2;PMS_P1;PMS_P2;Temp;Humidity;BMP_temperature;BMP_pressure;BME280_temperature;BME280_humidity;BME280_pressure;Samples;Min_cycle;Max_cycle;Signal;HPM_P1;HPM_P2
2021/11/26 00:02:00;;;;;;;38.33;16.33;;;4.60;80.20;;;;;;6219369;28;20113;-81
2021/11/26 00:05:04;;;;;;;40.45;16.90;;;4.60;80.00;;;;;;6219634;28;20110;-81
2021/11/26 00:08:06;;;;;;;36.05;15.32;;;4.60;80.10;;;;;;6218459;28;20078;-80
2021/11/26 00:11:08;;;;;;;33.85;15.88;;;4.60;80.20;;;;;;6217879;28;20089;-81
2021/11/26 00:14:15;;;;;;;39.65;15.68;;;4.70;80.30;;;;;;6219312;28;20101;-80
2021/11/26 00:17:19;;;;;;;34.40;16.30;;;4.70;80.20;;;;;;6217320;28;20137;-81
2021/11/26 00:20:22;;;;;;;34.65;15.40;;;4.80;80.20;;;;;;6214783;28;20070;-81
2021/11/26 00:23:24;;;;;;;37.40;14.18;;;4.80;79.90;;;;;;6216376;28;20112;-80
2021/11/26 00:26:26;;;;;;;36.17;15.32;;;4.80;80.00;;;;;;6217696;28;20597;-80
2021/11/26 00:29:27;;;;;;;41.75;15.95;;;4.70;79.90;;;;;;6216547;28;20072;-80
2021/11/26 00:32:29;;;;;;;39.67;14.85;;;4.80;79.90;;;;;;6215494;28;20106;-80
2021/11/26 00:35:32;;;;;;;40.53;16.60;;;4.70;80.00;;;;;;6214876;28;20090;-80
2021/11/26 00:38:34;;;;;;;39.10;16.25;;;4.80;80.10;;;;;;6216155;28;20058;-83
2021/11/26 00:41:36;;;;;;;44.60;19.92;;;4.70;80.00;;;;;;6215201;28;20062;-81
2021/11/26 00:44:38;;;;;;;35.92;16.30;;;4.70;80.00;;;;;;6214857;28;20456;-81
2021/11/26 00:47:40;;;;;;;34.03;14.98;;;4.70;79.90;;;;;;6214284;28;20473;-81
2021/11/26 00:50:44;;;;;;;38.95;17.10;;;4.80;80.00;;;;;;6215434;28;20046;-81
2021/11/26 00:53:46;;;;;;;44.90;18.38;;;4.80;80.10;;;;;;6215213;28;20049;-81
2021/11/26 00:56:47;;;;;;;43.70;16.48;;;4.70;80.00;;;;;;6218118;28;20038;-82
2021/11/26 00:59:51;;;;;;;37.38;16.88;;;4.70;80.00;;;;;;6218377;28;20077;-81
2021/11/26 01:02:53;;;;;;;37.47;16.75;;;4.80;80.00;;;;;;6217268;28;20091;-81
2021/11/26 01:05:57;;;;;;;40.10;16.95;;;4.80;79.90;;;;;;6215676;28;20077;-81
2021/11/26 01:08:59;;;;;;;41.05;17.33;;;4.80;79.80;;;;;;6212167;28;20129;-80
2021/11/26 01:12:01;;;;;;;37.65;16.98;;;4.80;79.80;;;;;;6215162;28;20042;-80
2021/11/26 01:15:05;;;;;;;36.92;15.27;;;4.80;80.00;;;;;;6213690;28;20136;-81
2021/11/26 01:18:07;;;;;;;40.08;15.40;;;4.80;79.90;;;;;;6213116;28;20054;-82
2021/11/26 01:21:11;;;;;;;39.80;16.65;;;4.90;79.90;;;;;;6212784;28;20133;-81
2021/11/26 01:24:13;;;;;;;33.47;15.23;;;4.90;79.70;;;;;;6213506;28;20046;-80
2021/11/26 01:27:15;;;;;;;35.35;17.15;;;4.90;79.70;;;;;;6213682;28;20042;-80
2021/11/26 01:30:23;;;;;;;40.72;16.63;;;5.00;79.70;;;;;;6213611;28;20046;-80
2021/11/26 01:33:26;;;;;;;44.40;18.00;;;5.00;79.50;;;;;;6213182;28;20042;-82
2021/11/26 01:36:29;;;;;;;44.88;18.88;;;5.10;79.50;;;;;;6212472;28;20100;-81
2021/11/26 01:39:31;;;;;;;51.97;19.30;;;5.10;79.60;;;;;;6212986;28;20186;-80
2021/11/26 01:42:33;;;;;;;41.70;16.08;;;5.00;79.70;;;;;;6212706;28;20051;-81
2021/11/26 01:45:42;;;;;;;41.53;18.60;;;5.00;79.80;;;;;;6213495;28;20069;-80
2021/11/26 01:48:44;;;;;;;41.40;18.38;;;5.00;79.90;;;;;;6213028;28;20467;-81
2021/11/26 01:51:47;;;;;;;33.63;15.52;;;5.00;80.00;;;;;;6211702;28;20062;-80
2021/11/26 01:54:49;;;;;;;40.95;17.50;;;4.90;79.90;;;;;;6213722;28;20493;-81
2021/11/26 01:57:51;;;;;;;29.55;14.98;;;4.90;80.70;;;;;;6216362;28;20046;-81
2021/11/26 02:00:55;;;;;;;43.63;16.40;;;4.80;80.30;;;;;;6216241;28;20051;-80
2021/11/26 02:03:57;;;;;;;41.03;16.52;;;4.80;80.40;;;;;;6216500;28;20054;-81
2021/11/26 02:07:00;;;;;;;45.65;17.42;;;4.80;80.60;;;;;;6216559;28;20106;-81
2021/11/26 02:10:02;;;;;;;38.03;15.85;;;4.80;80.60;;;;;;6217712;28;20069;-80
2021/11/26 02:13:04;;;;;;;43.10;18.58;;;4.70;80.60;;;;;;6216907;28;20130;-81
2021/11/26 02:16:06;;;;;;;44.45;17.80;;;4.70;80.60;;;;;;6219304;28;20102;-81
2021/11/26 02:19:10;;;;;;;42.40;18.30;;;4.80;80.60;;;;;;6217967;28;20047;-81
2021/11/26 02:22:13;;;;;;;39.88;16.13;;;4.80;80.70;;;;;;6219484;28;20050;-81
2021/11/26 02:25:15;;;;;;;42.30;17.08;;;4.80;80.50;;;;;;6217111;28;20110;-80
2021/11/26 02:28:18;;;;;;;44.58;17.08;;;4.70;80.60;;;;;;6218248;28;20047;-80
2021/11/26 02:31:20;;;;;;;42.10;17.48;;;4.70;80.60;;;;;;6221549;28;20058;-81
2021/11/26 02:34:22;;;;;;;40.83;17.70;;;4.60;81.30;;;;;;6221663;28;20081;-81
2021/11/26 02:37:25;;;;;;;42.60;16.77;;;4.60;80.90;;;;;;6220998;28;20050;-81
2021/11/26 02:40:29;;;;;;;43.47;17.70;;;4.70;80.80;;;;;;6222232;28;20074;-81
2021/11/26 02:43:33;;;;;;;39.80;16.92;;;4.80;80.80;;;;;;6222110;28;20100;-80
2021/11/26 02:46:36;;;;;;;44.17;18.52;;;4.90;80.70;;;;;;6222565;28;20497;-80
2021/11/26 02:49:37;;;;;;;42.60;17.23;;;4.90;80.60;;;;;;6221818;28;20066;-80
2021/11/26 02:52:43;;;;;;;40.60;16.35;;;4.80;80.30;;;;;;6221813;28;20062;-80
2021/11/26 02:55:45;;;;;;;46.80;18.30;;;4.80;80.30;;;;;;6221383;28;20076;-80
2021/11/26 02:58:47;;;;;;;39.85;16.88;;;4.90;80.60;;;;;;6221283;28;20136;-81
2021/11/26 03:01:48;;;;;;;46.65;18.13;;;4.90;80.50;;;;;;6220531;28;20094;-81
2021/11/26 03:04:50;;;;;;;40.85;17.13;;;4.90;80.40;;;;;;6220658;28;20074;-79
2021/11/26 03:07:54;;;;;;;38.70;16.63;;;4.90;80.10;;;;;;6219408;28;20047;-80
2021/11/26 03:10:56;;;;;;;44.67;16.52;;;4.90;80.00;;;;;;6234721;23;20062;-82
2021/11/26 03:13:58;;;;;;;44.53;17.52;;;4.90;80.10;;;;;;6215232;28;20046;-81
2021/11/26 03:17:00;;;;;;;42.28;17.45;;;4.90;79.90;;;;;;6212978;28;20078;-80
2021/11/26 03:20:02;;;;;;;40.47;18.88;;;4.80;80.10;;;;;;6216117;28;20072;-81
2021/11/26 03:26:15;;;;;;;53.88;19.23;;;4.80;80.10;;;;;;6891051;23;19922;-82
2021/11/26 03:29:18;;;;;;;40.70;17.80;;;4.80;80.20;;;;;;6212794;28;20106;-82
2021/11/26 03:32:19;;;;;;;44.70;19.17;;;4.90;80.10;;;;;;6210537;28;20415;-81
2021/11/26 03:35:21;;;;;;;48.55;16.92;;;4.90;80.70;;;;;;6206246;28;20126;-82
2021/11/26 03:38:23;;;;;;;40.53;16.52;;;4.90;80.00;;;;;;6188614;28;20133;-82
2021/11/26 03:41:26;;;;;;;41.35;18.20;;;4.90;80.10;;;;;;6186970;28;20070;-85
2021/11/26 03:44:28;;;;;;;36.83;17.38;;;4.90;80.00;;;;;;6186888;28;20405;-83
2021/11/26 03:47:30;;;;;;;53.58;17.85;;;4.80;80.00;;;;;;6186591;28;20133;-83
2021/11/26 03:50:32;;;;;;;46.75;18.23;;;4.70;80.00;;;;;;6185823;28;20121;-84
2021/11/26 03:53:33;;;;;;;47.17;18.58;;;4.60;80.40;;;;;;6185708;28;20042;-83
2021/11/26 03:56:38;;;;;;;39.42;16.65;;;4.60;80.80;;;;;;6184733;28;20258;-84
2021/11/26 03:59:40;;;;;;;36.95;17.73;;;4.50;81.10;;;;;;6185949;28;20228;-83
2021/11/26 04:02:43;;;;;;;37.90;15.93;;;4.50;81.10;;;;;;6185410;28;20114;-83
2021/11/26 04:05:45;;;;;;;36.35;16.15;;;4.50;81.30;;;;;;6184126;28;20039;-84
2021/11/26 04:08:47;;;;;;;41.55;15.93;;;4.40;81.30;;;;;;6184883;28;20457;-84
2021/11/26 04:11:50;;;;;;;48.70;17.77;;;4.50;81.40;;;;;;6184633;28;20509;-83
2021/11/26 04:14:53;;;;;;;39.53;17.77;;;4.50;81.20;;;;;;6183274;28;20055;-84
2021/11/26 04:17:57;;;;;;;46.28;19.55;;;4.60;80.90;;;;;;6184768;28;20073;-84
2021/11/26 04:20:58;;;;;;;41.47;16.40;;;4.60;80.80;;;;;;6183881;28;20082;-82
2021/11/26 04:24:02;;;;;;;42.53;17.88;;;4.60;80.90;;;;;;6190836;28;20042;-85
2021/11/26 04:27:05;;;;;;;42.55;18.10;;;4.70;80.80;;;;;;6190439;28;20061;-84
2021/11/26 04:30:10;;;;;;;50.25;17.92;;;4.70;80.50;;;;;;6188714;28;20500;-80
2021/11/26 04:33:11;;;;;;;42.47;15.57;;;4.70;80.50;;;;;;6186053;28;20057;-82
2021/11/26 04:36:13;;;;;;;38.25;14.90;;;4.70;80.60;;;;;;6185795;28;20074;-80
2021/11/26 04:39:15;;;;;;;43.47;16.98;;;4.70;81.20;;;;;;6185888;28;20059;-81
2021/11/26 04:42:18;;;;;;;44.58;18.25;;;4.70;80.20;;;;;;6187549;28;20133;-84
2021/11/26 04:45:20;;;;;;;36.50;16.20;;;4.70;80.20;;;;;;6185160;28;20050;-82
2021/11/26 04:48:24;;;;;;;42.90;17.70;;;4.70;80.30;;;;;;6186210;28;20074;-82
2021/11/26 04:51:25;;;;;;;41.78;17.42;;;4.70;80.40;;;;;;6186109;28;20050;-80
2021/11/26 04:54:27;;;;;;;41.83;17.52;;;4.80;80.40;;;;;;6184536;28;20233;-83
2021/11/26 04:57:30;;;;;;;43.33;17.40;;;4.70;80.20;;;;;;6182763;28;20588;-84
2021/11/26 05:00:32;;;;;;;42.10;16.88;;;4.60;80.30;;;;;;6184318;28;20134;-82
2021/11/26 05:03:34;;;;;;;47.40;16.80;;;4.60;80.50;;;;;;6185916;28;20058;-82
2021/11/26 05:06:36;;;;;;;44.28;17.25;;;4.60;80.70;;;;;;6184169;28;20186;-84
2021/11/26 05:09:38;;;;;;;38.58;16.60;;;4.50;80.90;;;;;;6183468;28;20047;-85
2021/11/26 05:12:45;;;;;;;43.63;17.58;;;4.50;81.10;;;;;;6182299;28;20043;-84
2021/11/26 05:15:47;;;;;;;45.13;17.67;;;4.50;81.10;;;;;;6182456;28;20050;-81
2021/11/26 05:18:49;;;;;;;38.42;18.58;;;4.50;81.10;;;;;;6183572;28;20089;-82
2021/11/26 05:21:50;;;;;;;47.70;18.17;;;4.50;81.10;;;;;;6183577;28;20051;-84
2021/11/26 05:24:52;;;;;;;40.10;17.40;;;4.40;81.10;;;;;;6181005;28;20133;-83
2021/11/26 05:27:56;;;;;;;38.50;17.02;;;4.40;81.20;;;;;;6181692;28;20133;-83
2021/11/26 05:30:58;;;;;;;40.63;18.30;;;4.40;81.30;;;;;;6183763;28;20051;-84
2021/11/26 05:34:00;;;;;;;39.88;17.17;;;4.60;81.20;;;;;;6183693;28;20133;-83
2021/11/26 05:37:01;;;;;;;49.00;20.13;;;4.60;81.20;;;;;;6181960;28;20488;-82
2021/11/26 05:40:05;;;;;;;53.25;19.77;;;4.50;81.10;;;;;;6181977;28;20133;-84
2021/11/26 05:43:09;;;;;;;38.20;15.98;;;4.60;81.00;;;;;;6183590;28;20047;-83
2021/11/26 05:46:10;;;;;;;51.60;18.40;;;4.50;81.00;;;;;;6182354;28;20535;-82
2021/11/26 05:49:12;;;;;;;42.10;18.38;;;4.50;84.00;;;;;;6187211;28;20050;-82
2021/11/26 05:52:14;;;;;;;46.85;17.98;;;4.50;82.10;;;;;;6188466;28;20158;-82
2021/11/26 05:55:19;;;;;;;42.65;17.05;;;4.50;81.80;;;;;;6182487;28;20102;-83
2021/11/26 05:58:22;;;;;;;44.30;17.65;;;4.50;81.80;;;;;;6188349;28;20098;-83
2021/11/26 06:01:24;;;;;;;42.83;18.38;;;4.50;81.80;;;;;;6188095;28;20078;-84
2021/11/26 06:04:26;;;;;;;45.35;16.77;;;4.50;81.70;;;;;;6188013;28;20047;-80
2021/11/26 06:07:27;;;;;;;38.13;16.92;;;4.50;81.60;;;;;;6187295;28;20066;-85
2021/11/26 06:10:29;;;;;;;42.58;17.83;;;4.50;81.50;;;;;;6188300;28;20053;-84
2021/11/26 06:13:32;;;;;;;45.20;17.50;;;4.50;81.40;;;;;;6187516;28;20135;-84
2021/11/26 06:16:34;;;;;;;43.80;16.63;;;4.50;81.30;;;;;;6187021;28;20053;-84
2021/11/26 06:19:36;;;;;;;45.83;18.55;;;4.40;81.50;;;;;;6188616;28;20106;-84
2021/11/26 06:22:40;;;;;;;42.42;17.70;;;4.40;81.80;;;;;;6188630;28;20051;-83
2021/11/26 06:25:41;;;;;;;49.92;17.58;;;4.40;81.80;;;;;;6187558;28;20122;-82
2021/11/26 06:28:45;;;;;;;42.70;18.48;;;4.50;81.70;;;;;;6187873;28;20062;-84
2021/11/26 06:31:46;;;;;;;43.47;19.40;;;4.40;81.70;;;;;;6189638;28;20050;-84
2021/11/26 06:34:48;;;;;;;39.15;17.58;;;4.40;81.90;;;;;;6190393;28;20046;-82
2021/11/26 06:37:51;;;;;;;46.45;18.73;;;4.40;81.90;;;;;;6189970;28;20219;-82
2021/11/26 06:40:53;;;;;;;51.08;20.05;;;4.40;82.10;;;;;;6191431;28;20070;-81
2021/11/26 06:43:56;;;;;;;43.35;18.58;;;4.50;82.40;;;;;;6189792;28;20129;-83
2021/11/26 06:46:58;;;;;;;37.85;16.45;;;4.50;82.00;;;;;;6185310;28;20117;-81
2021/11/26 06:50:00;;;;;;;37.47;18.08;;;4.60;81.50;;;;;;6187602;28;20047;-82
2021/11/26 06:53:03;;;;;;;44.60;18.38;;;4.50;81.30;;;;;;6186959;28;20050;-80
2021/11/26 06:56:05;;;;;;;42.95;17.00;;;4.50;81.30;;;;;;6186615;28;20047;-81
2021/11/26 06:59:08;;;;;;;46.90;19.10;;;4.50;81.70;;;;;;6186697;28;20419;-79
2021/11/26 07:02:10;;;;;;;45.45;17.38;;;4.50;81.60;;;;;;6186225;28;20554;-81
2021/11/26 07:05:13;;;;;;;49.92;18.95;;;4.40;81.60;;;;;;6185229;28;20054;-81
2021/11/26 07:08:18;;;;;;;47.40;17.92;;;4.40;81.70;;;;;;6184961;28;20070;-79
2021/11/26 07:11:19;;;;;;;45.30;17.75;;;4.30;81.40;;;;;;6185919;28;20057;-81
2021/11/26 07:14:23;;;;;;;42.38;19.35;;;4.40;81.60;;;;;;6185514;28;20053;-79
2021/11/26 07:17:25;;;;;;;38.13;16.85;;;4.30;81.60;;;;;;6187482;28;20110;-81
2021/11/26 07:20:27;;;;;;;42.13;16.45;;;4.30;81.70;;;;;;6192052;28;20055;-83
2021/11/26 07:23:28;;;;;;;38.70;16.73;;;4.40;81.90;;;;;;6193195;28;20074;-82
2021/11/26 07:26:30;;;;;;;44.08;16.73;;;4.40;81.60;;;;;;6191744;28;20110;-82
2021/11/26 07:29:33;;;;;;;37.80;16.73;;;4.40;81.50;;;;;;6192549;28;20126;-81
2021/11/26 07:32:35;;;;;;;48.92;19.02;;;4.40;81.40;;;;;;6190723;28;20043;-83
2021/11/26 07:35:39;;;;;;;40.67;17.60;;;4.50;81.10;;;;;;6187333;28;20070;-83
2021/11/26 07:38:41;;;;;;;39.78;19.00;;;4.50;81.10;;;;;;6203083;28;20043;-80
2021/11/26 07:41:43;;;;;;;43.58;18.33;;;4.50;81.10;;;;;;6201845;28;20636;-79
2021/11/26 07:44:46;;;;;;;37.38;17.08;;;4.40;81.10;;;;;;6202539;28;20046;-80
2021/11/26 07:47:48;;;;;;;43.78;17.55;;;4.40;81.30;;;;;;6203216;28;20038;-80
2021/11/26 07:50:50;;;;;;;37.63;16.95;;;4.40;81.20;;;;;;6203021;28;20046;-80
2021/11/26 07:53:51;;;;;;;40.00;18.48;;;4.60;81.10;;;;;;6200377;28;20070;-79
2021/11/26 07:56:54;;;;;;;40.22;16.60;;;4.70;80.60;;;;;;6201999;28;20097;-80
2021/11/26 07:59:57;;;;;;;34.20;17.08;;;4.80;80.20;;;;;;6200888;28;20114;-79
2021/11/26 08:03:01;;;;;;;37.78;15.40;;;4.80;79.40;;;;;;6200555;28;20047;-80
2021/11/26 08:06:03;;;;;;;35.72;17.10;;;4.80;79.20;;;;;;6200065;28;20051;-81
2021/11/26 08:09:07;;;;;;;38.63;16.92;;;4.80;79.30;;;;;;6200004;28;20070;-81
2021/11/26 08:12:09;;;;;;;41.50;17.15;;;4.80;79.40;;;;;;6200359;28;20074;-80
2021/11/26 08:15:15;;;;;;;47.45;18.13;;;4.80;79.80;;;;;;6188304;28;20109;-81
2021/11/26 08:18:18;;;;;;;41.60;17.92;;;4.80;79.40;;;;;;6165766;28;20054;-83
2021/11/26 08:21:19;;;;;;;36.30;16.33;;;4.80;79.60;;;;;;6175117;28;20094;-81
2021/11/26 08:24:22;;;;;;;35.00;16.23;;;4.80;79.40;;;;;;6185799;28;20110;-80
2021/11/26 08:27:24;;;;;;;38.17;16.77;;;4.80;79.30;;;;;;6184211;28;20061;-80
2021/11/26 08:30:27;;;;;;;35.95;15.75;;;4.90;79.70;;;;;;6186055;28;20849;-81
2021/11/26 08:33:29;;;;;;;35.25;14.48;;;5.00;79.40;;;;;;6185329;28;20110;-80
2021/11/26 08:36:31;;;;;;;40.08;14.23;;;5.10;78.50;;;;;;6181744;28;20494;-79
2021/11/26 08:39:33;;;;;;;32.13;15.27;;;5.20;78.00;;;;;;6183562;28;20066;-80
2021/11/26 08:42:35;;;;;;;35.28;16.35;;;5.20;78.00;;;;;;6184989;28;20078;-81
2021/11/26 08:45:39;;;;;;;32.45;13.68;;;5.30;76.80;;;;;;6187112;28;20102;-80
2021/11/26 08:48:41;;;;;;;31.95;13.23;;;5.40;77.00;;;;;;6186160;28;20051;-80
2021/11/26 08:51:45;;;;;;;29.02;14.27;;;5.50;76.70;;;;;;6183907;28;20058;-80
2021/11/26 08:54:47;;;;;;;34.30;14.98;;;5.50;76.30;;;;;;6185541;28;20058;-79
2021/11/26 08:57:53;;;;;;;42.42;17.30;;;5.60;76.60;;;;;;6183137;28;20070;-81
2021/11/26 09:00:56;;;;;;;39.22;15.77;;;5.60;76.10;;;;;;6185017;28;20042;-82
2021/11/26 09:03:58;;;;;;;27.70;13.30;;;5.70;76.10;;;;;;6183310;28;20475;-82
2021/11/26 09:07:00;;;;;;;39.13;16.95;;;5.80;75.60;;;;;;6187476;28;20132;-81
2021/11/26 09:10:02;;;;;;;35.05;14.18;;;5.80;75.50;;;;;;6198465;28;20055;-80
2021/11/26 09:13:05;;;;;;;41.50;15.75;;;5.80;75.50;;;;;;6196252;28;20084;-78
2021/11/26 09:16:08;;;;;;;35.40;15.38;;;6.00;75.00;;;;;;6199426;28;20066;-79
2021/11/26 09:19:10;;;;;;;33.15;15.40;;;5.90;74.00;;;;;;6198151;28;20107;-79
2021/11/26 09:22:12;;;;;;;31.13;13.18;;;6.00;74.50;;;;;;6195730;28;20062;-79
2021/11/26 09:25:15;;;;;;;32.90;16.92;;;6.10;74.40;;;;;;6193303;28;20583;-78
2021/11/26 09:28:17;;;;;;;51.33;17.90;;;6.10;74.10;;;;;;6188294;28;20058;-79
2021/11/26 09:31:20;;;;;;;40.53;16.05;;;6.20;73.60;;;;;;6190977;28;20103;-80
2021/11/26 09:34:22;;;;;;;39.67;17.23;;;6.20;73.80;;;;;;6192107;28;20106;-80
2021/11/26 09:37:24;;;;;;;38.58;17.48;;;6.20;73.60;;;;;;6181149;28;20133;-80
2021/11/26 09:40:27;;;;;;;40.05;16.08;;;6.20;73.10;;;;;;6182946;28;20114;-80
2021/11/26 09:43:29;;;;;;;39.00;15.73;;;6.20;73.00;;;;;;6179066;28;20061;-80
2021/11/26 09:46:36;;;;;;;33.50;16.02;;;6.20;73.20;;;;;;6181629;28;20059;-80
2021/11/26 09:49:38;;;;;;;39.55;15.27;;;6.20;73.40;;;;;;6182664;28;20057;-81
2021/11/26 09:52:41;;;;;;;37.70;17.88;;;6.30;73.30;;;;;;6181784;28;20130;-78
2021/11/26 09:55:49;;;;;;;39.67;17.35;;;6.40;72.90;;;;;;6180735;28;20068;-81
2021/11/26 09:58:50;;;;;;;;;;;6.50;73.30;;;;;;6181558;28;20051;-80
2021/11/26 10:01:53;;;;;;;36.58;15.75;;;6.70;73.00;;;;;;6179257;28;19977;-80
2021/11/26 10:05:00;;;;;;;34.00;14.00;;;6.70;71.80;;;;;;6178432;28;20134;-81
2021/11/26 10:08:02;;;;;;;40.40;17.30;;;6.70;72.00;;;;;;6178503;28;20057;-80
2021/11/26 10:11:03;;;;;;;34.70;15.95;;;6.70;71.60;;;;;;6179272;28;20078;-79
2021/11/26 10:14:18;;;;;;;38.83;15.68;;;6.70;72.10;;;;;;6178569;28;20050;-82
2021/11/26 10:17:23;;;;;;;35.53;16.55;;;6.70;71.80;;;;;;6182092;28;20588;-81
2021/11/26 10:20:25;;;;;;;41.42;16.30;;;6.70;72.20;;;;;;6179178;28;20043;-80
2021/11/26 10:23:31;;;;;;;30.67;14.90;;;6.70;72.60;;;;;;6177849;28;20047;-80
2021/11/26 10:26:33;;;;;;;31.67;14.90;;;6.70;72.40;;;;;;6179556;28;20497;-80
2021/11/26 10:29:37;;;;;;;34.28;14.80;;;6.70;72.60;;;;;;6177222;28;20433;-81
2021/11/26 10:32:49;;;;;;;37.50;15.43;;;6.80;72.60;;;;;;6178444;28;20509;-80
2021/11/26 10:35:53;;;;;;;35.47;15.85;;;6.70;72.00;;;;;;6177955;28;20046;-79
2021/11/26 10:38:55;;;;;;;34.45;14.98;;;6.60;72.30;;;;;;6178692;28;20497;-80
2021/11/26 10:42:00;;;;;;;35.80;15.68;;;6.70;72.60;;;;;;6178139;28;20047;-80
2021/11/26 10:45:05;;;;;;;34.70;14.27;;;6.70;72.40;;;;;;6181183;28;20473;-80
2021/11/26 10:48:33;;;;;;;40.20;16.70;;;6.70;72.60;;;;;;6181459;28;20457;-80
2021/11/26 10:58:23;;;;;;;33.45;16.08;;;6.50;72.00;;;;;;6182719;28;20042;-81
2021/11/26 11:01:25;;;;;;;;;;;6.50;72.50;;;;;;6181551;28;20057;-81
2021/11/26 11:04:30;;;;;;;35.30;14.40;;;6.50;72.70;;;;;;6180943;28;20568;-80
2021/11/26 11:07:42;;;;;;;32.05;14.50;;;6.50;72.50;;;;;;6180769;28;20050;-81
2021/11/26 11:10:44;;;;;;;37.30;13.95;;;6.40;72.90;;;;;;6180455;28;20164;-81
2021/11/26 11:13:46;;;;;;;35.40;16.13;;;6.40;73.10;;;;;;6180454;28;20129;-81
2021/11/26 11:16:49;;;;;;;34.83;15.23;;;6.50;73.40;;;;;;6180945;28;20082;-81
2021/11/26 11:19:55;;;;;;;37.97;16.02;;;6.60;73.00;;;;;;6181056;28;20051;-81
2021/11/26 11:22:57;;;;;;;32.67;15.27;;;6.60;72.90;;;;;;6183368;28;20500;-81
2021/11/26 11:25:59;;;;;;;35.33;15.40;;;6.60;72.90;;;;;;6184106;28;20043;-81
2021/11/26 11:29:02;;;;;;;48.47;15.68;;;6.60;73.30;;;;;;6182582;28;20110;-81
2021/11/26 11:32:04;;;;;;;39.40;16.20;;;6.80;73.00;;;;;;6181778;28;20051;-81
2021/11/26 11:35:09;;;;;;;38.30;15.00;;;6.90;72.70;;;;;;6180988;28;20102;-81
2021/11/26 11:38:12;;;;;;;39.70;16.48;;;7.00;72.40;;;;;;6181394;28;20496;-81
2021/11/26 11:41:14;;;;;;;41.63;16.95;;;7.00;72.20;;;;;;6180366;28;20126;-81
2021/11/26 11:44:27;;;;;;;38.45;15.82;;;7.10;72.10;;;;;;6178988;28;20047;-81
2021/11/26 11:47:29;;;;;;;37.72;17.48;;;7.10;72.00;;;;;;6180058;28;20047;-81
2021/11/26 11:50:40;;;;;;;35.70;16.58;;;7.10;72.20;;;;;;6180382;28;20641;-81
2021/11/26 11:53:42;;;;;;;34.00;17.08;;;7.10;72.00;;;;;;6179118;28;20070;-82
2021/11/26 11:56:46;;;;;;;44.38;17.20;;;7.20;71.90;;;;;;6180101;28;20062;-82
2021/11/26 11:59:50;;;;;;;38.33;15.13;;;7.10;72.00;;;;;;6179690;28;20162;-81
2021/11/26 12:02:52;;;;;;;40.90;16.00;;;7.10;72.10;;;;;;6179953;28;20054;-80
2021/11/26 12:05:59;;;;;;;40.35;16.65;;;7.20;72.80;;;;;;6179573;28;20657;-82
2021/11/26 12:09:02;;;;;;;32.78;14.77;;;7.30;71.90;;;;;;6179387;28;20528;-82
2021/11/26 12:12:07;;;;;;;33.17;14.90;;;7.40;71.60;;;;;;6182933;28;20121;-82
2021/11/26 12:15:10;;;;;;;37.30;15.25;;;7.50;71.40;;;;;;6179914;28;20050;-81
2021/11/26 12:18:11;;;;;;;29.80;14.52;;;7.60;70.80;;;;;;6180447;28;20136;-82
2021/11/26 12:21:17;;;;;;;32.85;14.40;;;7.60;71.00;;;;;;6179639;28;20058;-82
2021/11/26 12:24:21;;;;;;;32.35;13.85;;;7.70;70.80;;;;;;6179979;28;20520;-82
2021/11/26 12:27:26;;;;;;;32.95;15.82;;;7.60;70.70;;;;;;6180080;28;20050;-81
2021/11/26 12:30:28;;;;;;;31.13;13.57;;;7.60;71.00;;;;;;6179739;28;20070;-82
2021/11/26 12:33:30;;;;;;;33.67;14.98;;;7.60;70.80;;;;;;6178360;28;20053;-81
2021/11/26 12:36:42;;;;;;;28.88;13.50;;;7.70;71.00;;;;;;6178420;28;20047;-82
2021/11/26 12:39:44;;;;;;;35.90;13.23;;;7.80;71.00;;;;;;6179699;28;20053;-82
2021/11/26 12:42:46;;;;;;;28.83;13.38;;;7.70;70.30;;;;;;6184786;28;20082;-80
2021/11/26 12:45:48;;;;;;;39.17;13.00;;;7.60;70.30;;;;;;6186563;28;20070;-81
2021/11/26 12:49:14;;;;;;;28.42;12.02;;;7.40;70.60;;;;;;6187641;28;20458;-81
2021/11/26 12:52:21;;;;;;;35.88;16.55;;;7.30;71.30;;;;;;6179166;28;20059;-82
2021/11/26 12:55:23;;;;;;;54.88;27.35;;;7.30;71.70;;;;;;6181822;28;20051;-81
2021/11/26 12:58:27;;;;;;;45.30;20.48;;;7.20;72.00;;;;;;6179930;28;20121;-79
2021/11/26 13:01:32;;;;;;;62.83;31.42;;;7.10;72.20;;;;;;6179224;28;20050;-81
2021/11/26 13:04:38;;;;;;;29.70;12.48;;;7.00;72.80;;;;;;6178838;28;20059;-81
2021/11/26 13:07:44;;;;;;;41.47;19.02;;;7.00;73.00;;;;;;6181126;28;20047;-81
2021/11/26 13:10:46;;;;;;;36.00;16.75;;;7.00;73.00;;;;;;6179282;28;20087;-81
2021/11/26 13:13:48;;;;;;;32.63;14.82;;;7.00;73.10;;;;;;6179295;28;20051;-81
2021/11/26 13:16:56;;;;;;;35.20;17.48;;;6.90;73.10;;;;;;6177710;28;20042;-81
2021/11/26 13:20:11;;;;;;;33.45;14.93;;;7.00;73.50;;;;;;6178651;28;20054;-84
2021/11/26 13:23:17;;;;;;;35.17;16.00;;;7.00;73.20;;;;;;6179398;28;20050;-82
2021/11/26 13:26:19;;;;;;;39.80;19.33;;;7.00;73.10;;;;;;6178406;28;20140;-80
2021/11/26 13:29:20;;;;;;;37.60;14.82;;;7.00;72.90;;;;;;6177392;28;20046;-81
2021/11/26 13:32:22;;;;;;;30.40;14.82;;;7.00;72.80;;;;;;6179182;28;20403;-81
2021/11/26 13:35:29;;;;;;;32.80;14.23;;;6.90;73.10;;;;;;6179325;28;20049;-81
2021/11/26 13:38:35;;;;;;;32.88;14.35;;;6.90;73.20;;;;;;6178307;28;20050;-81
2021/11/26 13:41:39;;;;;;;28.27;13.15;;;7.00;73.30;;;;;;6177876;28;20047;-81
2021/11/26 13:44:40;;;;;;;29.33;13.25;;;6.90;73.30;;;;;;6176468;28;20082;-79
2021/11/26 13:47:42;;;;;;;28.27;13.65;;;7.00;73.40;;;;;;6177542;28;20078;-81
2021/11/26 13:50:44;;;;;;;34.30;13.77;;;6.80;73.80;;;;;;6178004;28;20046;-82
2021/11/26 13:53:49;;;;;;;33.17;14.30;;;6.80;73.90;;;;;;6177937;28;20105;-82
2021/11/26 13:56:52;;;;;;;35.45;13.70;;;6.80;74.10;;;;;;6177839;28;20126;-82
2021/11/26 14:00:06;;;;;;;31.88;12.50;;;6.90;73.90;;;;;;6178817;28;20069;-82
2021/11/26 14:03:08;;;;;;;27.73;11.60;;;6.90;73.80;;;;;;6176789;28;20575;-82
2021/11/26 14:06:15;;;;;;;28.58;12.63;;;6.90;74.00;;;;;;6176291;28;20057;-83
2021/11/26 14:09:20;;;;;;;30.95;12.35;;;7.00;73.80;;;;;;6177254;28;20046;-80
2021/11/26 14:12:24;;;;;;;31.40;13.15;;;6.90;74.00;;;;;;6177198;28;20126;-82
2021/11/26 14:15:26;;;;;;;26.77;11.55;;;7.00;73.80;;;;;;6177063;28;20043;-83
2021/11/26 14:18:28;;;;;;;23.38;10.35;;;7.00;73.70;;;;;;6181202;28;20086;-79
2021/11/26 14:21:32;;;;;;;34.67;13.35;;;7.00;73.80;;;;;;6181763;28;20042;-81
2021/11/26 14:24:37;;;;;;;30.58;12.90;;;6.90;74.10;;;;;;6183218;28;20109;-81
2021/11/26 14:27:41;;;;;;;31.20;13.30;;;6.90;75.10;;;;;;6182574;28;20146;-81
2021/11/26 14:30:43;;;;;;;30.92;11.88;;;6.80;76.10;;;;;;6182142;28;20155;-82
2021/11/26 14:33:45;;;;;;;31.35;13.45;;;6.70;77.10;;;;;;6181046;28;20047;-81
2021/11/26 14:36:49;;;;;;;31.27;13.13;;;6.60;78.10;;;;;;6181792;28;20061;-81
2021/11/26 14:39:52;;;;;;;31.73;11.73;;;6.60;79.30;;;;;;6180825;28;20053;-81
2021/11/26 14:43:07;;;;;;;31.63;13.55;;;6.50;79.50;;;;;;6182805;28;20078;-80
2021/11/26 14:46:12;;;;;;;30.85;12.30;;;6.40;80.40;;;;;;6180488;28;20043;-81
2021/11/26 14:49:15;;;;;;;34.15;14.23;;;6.40;80.90;;;;;;6180256;28;20046;-82
2021/11/26 14:52:18;;;;;;;32.47;13.02;;;6.30;81.50;;;;;;6180435;28;20191;-81
2021/11/26 14:55:21;;;;;;;31.60;11.98;;;6.30;81.60;;;;;;6184457;28;20125;-82
2021/11/26 14:58:23;;;;;;;29.48;12.52;;;6.30;81.90;;;;;;6185683;28;20512;-82
2021/11/26 15:01:27;;;;;;;32.50;12.77;;;6.30;82.20;;;;;;6181782;28;20047;-81
2021/11/26 15:04:29;;;;;;;35.22;14.98;;;6.20;82.50;;;;;;6180510;28;20158;-81
2021/11/26 15:07:30;;;;;;;38.35;17.40;;;6.10;83.40;;;;;;6179333;28;20050;-80
2021/11/26 15:10:34;;;;;;;44.55;15.07;;;6.00;84.10;;;;;;6181038;28;20058;-81
2021/11/26 15:13:36;;;;;;;54.90;17.42;;;5.90;84.60;;;;;;6181835;28;20050;-82
2021/11/26 15:16:39;;;;;;;41.45;16.10;;;5.80;85.00;;;;;;6180087;28;20098;-81
2021/11/26 15:19:41;;;;;;;45.05;18.05;;;5.80;85.60;;;;;;6180086;28;20047;-81
2021/11/26 15:22:42;;;;;;;41.38;16.27;;;5.70;85.80;;;;;;6180955;28;20149;-82
2021/11/26 15:25:46;;;;;;;54.60;18.80;;;5.80;86.30;;;;;;6180603;28;20050;-81
2021/11/26 15:28:49;;;;;;;47.58;15.88;;;5.70;86.90;;;;;;6178860;28;20070;-82
2021/11/26 15:31:51;;;;;;;42.78;17.13;;;5.70;86.50;;;;;;6180017;28;20504;-81
2021/11/26 15:34:53;;;;;;;43.13;16.58;;;5.70;86.60;;;;;;6179973;28;20050;-81
2021/11/26 15:37:55;;;;;;;47.60;16.67;;;5.70;87.00;;;;;;6178048;28;20573;-81
2021/11/26 15:40:58;;;;;;;46.40;17.48;;;5.70;86.70;;;;;;6228394;23;20506;-81
2021/11/26 15:44:00;;;;;;;48.22;16.30;;;5.70;86.70;;;;;;6250068;28;20057;-81
2021/11/26 15:47:02;;;;;;;45.88;16.02;;;5.70;86.70;;;;;;6224952;28;20384;-81
2021/11/26 15:50:05;;;;;;;42.38;15.40;;;5.50;86.90;;;;;;6232499;28;20427;-81
2021/11/26 15:53:08;;;;;;;45.50;18.13;;;5.40;87.20;;;;;;6232807;28;20100;-80